createdAt,value
2023-03-16T00:01:43.592Z,0.88
2023-03-16T00:04:09.911Z,0.78
2023-03-16T00:06:36.210Z,0.95
2023-03-16T00:09:02.514Z,0.96
2023-03-16T00:11:28.844Z,1.03
2023-03-16T00:13:55.152Z,1.03
2023-03-16T00:16:21.464Z,0.89
2023-03-16T00:18:47.773Z,1.05
2023-03-16T00:21:14.074Z,1.14
2023-03-16T00:23:40.371Z,1.43
2023-03-16T00:26:06.683Z,1.26
2023-03-16T00:28:32.992Z,1.24
2023-03-16T00:30:59.391Z,1.33
2023-03-16T00:33:25.735Z,1.30
2023-03-16T00:35:52.059Z,1.40
2023-03-16T00:38:18.745Z,1.46
2023-03-16T00:40:45.152Z,1.27
2023-03-16T00:43:11.470Z,1.48
2023-03-16T00:45:37.775Z,1.21
2023-03-16T00:48:04.073Z,1.33
2023-03-16T00:50:30.388Z,1.17
2023-03-16T00:52:56.920Z,1.23
2023-03-16T00:55:23.276Z,1.13
2023-03-16T00:57:49.642Z,1.07
2023-03-16T01:00:15.935Z,1.10
2023-03-16T01:02:42.222Z,1.11
2023-03-16T01:05:08.538Z,1.13
2023-03-16T01:07:34.855Z,1.01
2023-03-16T01:10:01.137Z,1.12
2023-03-16T01:12:27.443Z,1.02
2023-03-16T01:14:53.872Z,1.02
2023-03-16T01:17:20.163Z,0.95
2023-03-16T01:19:46.513Z,1.02
2023-03-16T01:22:12.823Z,0.90
2023-03-16T01:24:39.118Z,0.98
2023-03-16T01:27:05.480Z,1.16
2023-03-16T01:29:31.799Z,0.96
2023-03-16T01:31:58.084Z,1.12
2023-03-16T01:34:24.387Z,1.06
2023-03-16T01:36:50.679Z,1.11
2023-03-16T01:39:16.964Z,1.18
2023-03-16T01:41:43.293Z,1.13
2023-03-16T01:44:09.630Z,1.32
2023-03-16T01:46:35.972Z,1.20
2023-03-16T01:49:02.354Z,1.36
2023-03-16T01:51:28.663Z,2.65
2023-03-16T01:53:54.963Z,2.07
2023-03-16T01:56:21.527Z,1.65
2023-03-16T01:58:48.117Z,1.78
2023-03-16T02:01:14.519Z,1.70
2023-03-16T02:03:40.958Z,1.44
2023-03-16T02:06:07.277Z,1.53
2023-03-16T02:08:33.580Z,1.34
2023-03-16T02:10:59.909Z,1.61
2023-03-16T02:13:26.229Z,1.58
2023-03-16T02:15:52.615Z,1.75
2023-03-16T02:18:18.972Z,1.63
2023-03-16T02:20:45.273Z,1.77
2023-03-16T02:23:11.581Z,1.88
2023-03-16T02:25:37.904Z,1.76
2023-03-16T02:28:04.333Z,1.66
2023-03-16T02:30:30.630Z,1.49
2023-03-16T02:32:56.996Z,1.46
2023-03-16T02:35:23.369Z,1.46
2023-03-16T02:37:49.766Z,1.34
2023-03-16T02:40:16.090Z,1.36
2023-03-16T02:42:42.385Z,1.44
2023-03-16T02:45:08.674Z,1.67
2023-03-16T02:47:35.032Z,1.70
2023-03-16T02:50:01.337Z,1.64
2023-03-16T02:52:27.633Z,1.38
2023-03-16T02:54:53.954Z,1.37
2023-03-16T02:57:20.249Z,1.17
2023-03-16T02:59:46.534Z,1.16
2023-03-16T03:02:12.867Z,1.56
2023-03-16T03:04:39.158Z,1.59
2023-03-16T03:07:05.498Z,1.84
2023-03-16T03:09:31.848Z,1.90
2023-03-16T03:11:58.135Z,1.99
2023-03-16T03:14:24.421Z,1.98
2023-03-16T03:16:50.731Z,1.92
2023-03-16T03:19:17.088Z,1.93
2023-03-16T03:21:43.394Z,1.92
2023-03-16T03:24:09.735Z,1.73
2023-03-16T03:26:36.060Z,1.71
2023-03-16T03:29:02.360Z,1.96
2023-03-16T03:31:28.719Z,1.84
2023-03-16T03:33:55.247Z,1.97
2023-03-16T03:36:21.547Z,2.12
2023-03-16T03:38:47.862Z,2.21
2023-03-16T03:41:14.157Z,2.04
2023-03-16T03:43:40.451Z,1.94
2023-03-16T03:46:06.918Z,1.99
2023-03-16T03:48:33.295Z,1.96
2023-03-16T03:50:59.607Z,2.17
2023-03-16T03:53:25.939Z,2.03
2023-03-16T03:55:52.250Z,2.19
2023-03-16T03:58:18.544Z,2.12
2023-03-16T04:00:44.876Z,1.75
2023-03-16T04:03:11.335Z,1.61
2023-03-16T04:05:37.731Z,1.74
2023-03-16T04:08:04.055Z,1.91
2023-03-16T04:10:30.623Z,2.05
2023-03-16T04:12:56.962Z,2.22
2023-03-16T04:15:23.320Z,2.30
2023-03-16T04:17:49.612Z,2.23
2023-03-16T04:20:15.920Z,2.03
2023-03-16T04:22:42.240Z,2.15
2023-03-16T04:25:10.373Z,1.99
2023-03-16T04:27:37.682Z,1.75
2023-03-16T04:30:03.996Z,1.75
2023-03-16T04:32:30.323Z,1.89
2023-03-16T04:34:56.709Z,2.15
2023-03-16T04:37:24.875Z,2.08
2023-03-16T04:39:51.183Z,2.24
2023-03-16T04:42:17.488Z,2.51
2023-03-16T04:44:43.810Z,2.14
2023-03-16T04:47:10.120Z,2.35
2023-03-16T04:49:36.419Z,2.53
2023-03-16T04:52:02.743Z,2.55
2023-03-16T04:54:29.054Z,2.23
2023-03-16T04:56:55.371Z,2.17
2023-03-16T04:59:21.718Z,2.24
2023-03-16T05:01:48.018Z,2.28
2023-03-16T05:04:19.163Z,2.16
2023-03-16T05:06:45.983Z,2.86
2023-03-16T05:09:12.284Z,3.04
2023-03-16T05:11:38.589Z,2.74
2023-03-16T05:14:04.955Z,2.42
2023-03-16T05:16:31.308Z,2.77
2023-03-16T05:18:57.625Z,3.16
2023-03-16T05:21:24.009Z,2.63
2023-03-16T05:23:50.303Z,2.51
2023-03-16T05:26:16.631Z,2.52
2023-03-16T05:28:42.948Z,2.40
2023-03-16T05:31:09.257Z,2.83
2023-03-16T05:33:35.616Z,3.40
2023-03-16T05:36:02.024Z,2.99
2023-03-16T05:38:28.473Z,2.45
2023-03-16T05:40:54.788Z,2.39
2023-03-16T05:43:21.103Z,2.13
2023-03-16T05:45:47.411Z,2.18
2023-03-16T05:48:13.702Z,2.40
2023-03-16T05:50:40.000Z,2.42
2023-03-16T05:53:06.303Z,2.50
2023-03-16T05:55:32.604Z,2.18
2023-03-16T05:57:58.925Z,2.30
2023-03-16T06:00:25.228Z,2.20
2023-03-16T06:02:51.615Z,2.13
2023-03-16T06:05:18.000Z,2.00
2023-03-16T06:07:44.295Z,1.83
2023-03-16T06:10:10.585Z,1.85
2023-03-16T06:12:36.916Z,2.15
2023-03-16T06:15:03.228Z,2.08
2023-03-16T06:17:29.538Z,1.86
2023-03-16T06:19:55.869Z,2.65
2023-03-16T06:22:22.203Z,2.81
2023-03-16T06:24:48.519Z,2.69
2023-03-16T06:27:14.877Z,2.67
2023-03-16T06:29:41.172Z,2.47
2023-03-16T06:32:07.469Z,2.69
2023-03-16T06:34:33.806Z,3.21
2023-03-16T06:37:00.141Z,3.56
2023-03-16T06:39:26.438Z,3.75
2023-03-16T06:41:52.761Z,4.10
2023-03-16T06:44:19.064Z,4.02
2023-03-16T06:46:45.370Z,3.87
2023-03-16T06:49:13.087Z,4.21
2023-03-16T06:51:39.390Z,4.12
2023-03-16T06:54:05.691Z,4.36
2023-03-16T06:56:32.014Z,4.11
2023-03-16T06:58:59.839Z,4.31
2023-03-16T07:01:26.168Z,4.15
2023-03-16T07:03:52.584Z,4.23
2023-03-16T07:06:18.878Z,4.19
2023-03-16T07:08:45.188Z,4.05
2023-03-16T07:11:11.519Z,4.20
2023-03-16T07:13:37.842Z,4.04
2023-03-16T07:16:04.128Z,3.77
2023-03-16T07:18:30.447Z,4.20
2023-03-16T07:20:56.752Z,4.08
2023-03-16T07:23:23.059Z,3.86
2023-03-16T07:25:49.416Z,3.81
2023-03-16T07:28:15.710Z,3.81
2023-03-16T07:30:50.565Z,3.38
2023-03-16T07:33:26.764Z,4.05
2023-03-16T07:35:53.343Z,4.06
2023-03-16T07:38:19.707Z,4.27
2023-03-16T07:40:46.040Z,4.45
2023-03-16T07:43:12.345Z,4.39
2023-03-16T07:45:38.798Z,3.98
2023-03-16T07:48:05.157Z,4.50
2023-03-16T07:50:31.539Z,4.55
2023-03-16T07:52:57.908Z,4.64
2023-03-16T07:55:24.234Z,4.31
2023-03-16T07:57:50.532Z,4.33
2023-03-16T08:00:16.836Z,4.26
2023-03-16T08:02:43.236Z,4.09
2023-03-16T08:05:09.603Z,4.48
2023-03-16T08:07:35.955Z,4.50
2023-03-16T08:10:02.271Z,4.67
2023-03-16T08:12:28.564Z,4.34
2023-03-16T08:14:54.862Z,4.58
2023-03-16T08:17:21.302Z,4.58
2023-03-16T08:19:47.612Z,4.75
2023-03-16T08:22:13.937Z,4.56
2023-03-16T08:24:40.256Z,4.54
2023-03-16T08:27:06.561Z,4.58
2023-03-16T08:29:32.867Z,4.69
2023-03-16T08:31:59.180Z,5.19
2023-03-16T08:34:25.498Z,5.56
2023-03-16T08:36:51.813Z,5.10
2023-03-16T08:39:18.246Z,4.92
2023-03-16T08:41:44.551Z,4.90
2023-03-16T08:44:10.837Z,4.83
2023-03-16T08:46:37.217Z,5.06
2023-03-16T08:49:03.545Z,4.84
2023-03-16T08:51:29.830Z,4.75
2023-03-16T08:53:56.145Z,4.83
2023-03-16T08:56:22.431Z,4.83
2023-03-16T08:58:50.486Z,4.61
2023-03-16T09:01:17.540Z,4.69
2023-03-16T09:03:43.943Z,4.53
2023-03-16T09:06:10.236Z,4.71
2023-03-16T09:08:36.546Z,4.56
2023-03-16T09:11:02.905Z,4.96
2023-03-16T09:13:29.204Z,4.49
2023-03-16T09:15:55.568Z,4.68
2023-03-16T09:18:21.925Z,4.32
2023-03-16T09:20:48.201Z,4.39
2023-03-16T09:23:14.521Z,4.63
2023-03-16T09:25:40.807Z,4.69
2023-03-16T09:28:07.111Z,4.52
2023-03-16T09:30:33.414Z,4.71
2023-03-16T09:32:59.736Z,4.25
2023-03-16T09:35:26.109Z,4.51
2023-03-16T09:38:06.347Z,4.58
2023-03-16T09:40:33.331Z,4.51
2023-03-16T09:42:59.685Z,4.29
2023-03-16T09:45:25.974Z,4.28
2023-03-16T09:47:52.261Z,4.49
2023-03-16T09:50:18.582Z,4.86
2023-03-16T09:52:44.888Z,4.50
2023-03-16T09:55:11.195Z,4.80
2023-03-16T09:57:37.499Z,4.74
2023-03-16T10:00:03.781Z,4.29
2023-03-16T10:02:30.066Z,4.59
2023-03-16T10:04:56.370Z,4.36
2023-03-16T10:07:22.672Z,4.55
2023-03-16T10:09:48.960Z,4.92
2023-03-16T10:12:15.275Z,4.97
2023-03-16T10:14:41.645Z,4.91
2023-03-16T10:17:07.961Z,5.13
2023-03-16T10:19:34.274Z,6.55
2023-03-16T10:22:00.575Z,5.34
2023-03-16T10:24:26.878Z,5.00
2023-03-16T10:26:53.192Z,4.93
2023-03-16T10:29:19.507Z,4.87
2023-03-16T10:31:45.842Z,5.11
2023-03-16T10:34:12.211Z,5.09
2023-03-16T10:36:38.572Z,5.20
2023-03-16T10:39:04.902Z,4.53
2023-03-16T10:41:31.226Z,4.88
2023-03-16T10:43:57.625Z,4.97
2023-03-16T10:46:24.032Z,4.68
2023-03-16T10:48:50.521Z,4.38
2023-03-16T10:51:16.876Z,4.35
2023-03-16T10:53:43.197Z,4.27
2023-03-16T10:56:09.523Z,4.16
2023-03-16T10:58:35.879Z,3.99
2023-03-16T11:01:02.200Z,4.41
2023-03-16T11:03:28.573Z,3.89
2023-03-16T11:05:54.874Z,3.70
2023-03-16T11:08:21.262Z,3.91
2023-03-16T11:10:55.576Z,3.55
2023-03-16T11:13:22.491Z,3.10
2023-03-16T11:15:48.817Z,3.11
2023-03-16T11:18:15.120Z,2.99
2023-03-16T11:20:41.442Z,3.08
2023-03-16T11:23:07.792Z,3.09
2023-03-16T11:25:34.096Z,3.19
2023-03-16T11:28:00.407Z,3.19
2023-03-16T11:30:26.732Z,3.10
2023-03-16T11:32:53.062Z,3.31
2023-03-16T11:35:19.434Z,2.82
2023-03-16T11:37:45.797Z,2.85
2023-03-16T11:40:12.107Z,3.01
2023-03-16T11:42:38.420Z,2.97
2023-03-16T11:45:04.757Z,2.85
2023-03-16T11:47:31.056Z,2.82
2023-03-16T11:49:57.359Z,2.55
2023-03-16T11:52:23.713Z,3.13
2023-03-16T11:54:50.152Z,3.19
2023-03-16T11:57:16.448Z,3.52
2023-03-16T11:59:48.942Z,3.37
2023-03-16T12:02:18.490Z,3.26
2023-03-16T12:04:44.885Z,2.93
2023-03-16T12:07:11.178Z,3.70
2023-03-16T12:09:37.487Z,3.30
2023-03-16T12:12:03.824Z,3.62
2023-03-16T12:14:30.121Z,3.39
2023-03-16T12:16:56.457Z,3.18
2023-03-16T12:19:22.824Z,3.20
2023-03-16T12:21:49.142Z,3.26
2023-03-16T12:24:15.478Z,3.84
2023-03-16T12:26:41.816Z,3.88
2023-03-16T12:29:08.129Z,4.16
2023-03-16T12:31:34.524Z,4.58
2023-03-16T12:34:00.894Z,4.52
2023-03-16T12:36:27.210Z,4.64
2023-03-16T12:38:53.568Z,4.53
2023-03-16T12:41:19.898Z,4.16
2023-03-16T12:43:46.235Z,3.94
2023-03-16T12:46:12.573Z,4.30
2023-03-16T12:48:38.913Z,4.21
2023-03-16T12:51:05.215Z,4.09
2023-03-16T12:53:31.526Z,4.48
2023-03-16T12:55:57.914Z,4.31
2023-03-16T12:58:24.240Z,4.13
2023-03-16T13:00:50.588Z,3.71
2023-03-16T13:03:17.135Z,4.13
2023-03-16T13:05:43.459Z,4.33
2023-03-16T13:08:09.771Z,3.90
2023-03-16T13:10:36.081Z,3.90
2023-03-16T13:13:02.377Z,4.32
2023-03-16T13:15:32.396Z,3.73
2023-03-16T13:17:58.710Z,3.67
2023-03-16T13:20:30.851Z,3.65
2023-03-16T13:22:58.681Z,4.18
2023-03-16T13:25:24.995Z,4.38
2023-03-16T13:27:51.298Z,4.28
2023-03-16T13:30:17.665Z,4.14
2023-03-16T13:32:45.172Z,3.84
2023-03-16T13:35:11.499Z,3.49
2023-03-16T13:37:37.821Z,4.25
2023-03-16T13:40:04.155Z,4.24
2023-03-16T13:42:30.464Z,4.08
2023-03-16T13:44:56.807Z,4.42
2023-03-16T13:47:23.110Z,3.76
2023-03-16T13:49:49.413Z,4.18
2023-03-16T13:52:15.736Z,4.01
2023-03-16T13:54:42.062Z,3.94
2023-03-16T13:57:08.350Z,3.96
2023-03-16T13:59:34.708Z,4.00
2023-03-16T14:02:01.009Z,4.19
2023-03-16T14:04:27.315Z,3.96
2023-03-16T14:06:53.636Z,4.34
2023-03-16T14:09:19.935Z,4.47
2023-03-16T14:11:46.227Z,4.40
2023-03-16T14:14:12.544Z,4.29
2023-03-16T14:16:38.838Z,4.06
2023-03-16T14:19:05.135Z,4.23
2023-03-16T14:21:31.471Z,4.54
2023-03-16T14:23:57.771Z,4.63
2023-03-16T14:26:24.068Z,4.69
2023-03-16T14:28:50.406Z,4.65
2023-03-16T14:31:16.766Z,4.83
2023-03-16T14:33:43.080Z,5.29
2023-03-16T14:36:09.422Z,6.36
2023-03-16T14:38:35.891Z,6.29
2023-03-16T14:41:02.208Z,5.88
2023-03-16T14:43:28.541Z,9.46
2023-03-16T14:45:54.903Z,11.01
2023-03-16T14:48:21.212Z,6.86
2023-03-16T14:50:47.538Z,9.92
2023-03-16T14:53:13.855Z,7.23
2023-03-16T14:55:40.156Z,7.54
2023-03-16T14:58:06.487Z,9.65
2023-03-16T15:00:37.068Z,10.52
2023-03-16T15:03:09.305Z,6.63
2023-03-16T15:05:36.632Z,5.49
2023-03-16T15:08:02.986Z,6.17
2023-03-16T15:10:29.639Z,6.87
2023-03-16T15:12:56.195Z,6.72
2023-03-16T15:15:22.539Z,5.79
2023-03-16T15:17:48.897Z,6.15
2023-03-16T15:20:15.200Z,5.82
2023-03-16T15:22:41.500Z,6.35
2023-03-16T15:25:07.830Z,5.60
2023-03-16T15:27:34.122Z,5.59
2023-03-16T15:30:00.420Z,5.40
2023-03-16T15:32:26.769Z,5.42
2023-03-16T15:34:53.099Z,5.93
2023-03-16T15:37:19.394Z,5.86
2023-03-16T15:39:45.702Z,6.02
2023-03-16T15:42:12.013Z,5.72
2023-03-16T15:44:38.313Z,5.83
2023-03-16T15:47:04.713Z,5.98
2023-03-16T15:49:37.844Z,5.99
2023-03-16T15:52:11.340Z,5.92
2023-03-16T15:54:37.643Z,6.20
2023-03-16T15:57:03.943Z,6.04
2023-03-16T15:59:30.258Z,5.93
2023-03-16T16:01:56.571Z,5.74
2023-03-16T16:04:22.986Z,5.99
2023-03-16T16:06:49.454Z,6.50
2023-03-16T16:09:15.810Z,6.97
2023-03-16T16:11:42.141Z,6.25
2023-03-16T16:14:08.461Z,6.35
2023-03-16T16:16:34.763Z,6.56
2023-03-16T16:19:01.083Z,6.46
2023-03-16T16:21:27.434Z,5.92
2023-03-16T16:23:53.744Z,5.99
2023-03-16T16:26:20.051Z,6.31
2023-03-16T16:28:46.385Z,6.17
2023-03-16T16:31:12.684Z,6.29
2023-03-16T16:33:38.997Z,6.02
2023-03-16T16:36:05.366Z,6.22
2023-03-16T16:38:31.728Z,6.06
2023-03-16T16:40:58.072Z,5.78
2023-03-16T16:43:24.402Z,5.88
2023-03-16T16:45:50.739Z,6.08
2023-03-16T16:48:17.042Z,6.12
2023-03-16T16:50:43.351Z,6.25
2023-03-16T16:53:09.657Z,6.44
2023-03-16T16:55:35.967Z,6.42
2023-03-16T16:58:04.629Z,6.50
2023-03-16T17:00:32.337Z,6.71
2023-03-16T17:02:58.652Z,6.88
2023-03-16T17:05:24.964Z,6.26
2023-03-16T17:07:51.259Z,6.46
2023-03-16T17:10:17.548Z,6.50
2023-03-16T17:12:44.423Z,9.48
2023-03-16T17:15:10.719Z,9.27
2023-03-16T17:17:37.018Z,9.20
2023-03-16T17:20:03.349Z,9.02
2023-03-16T17:22:29.691Z,7.83
2023-03-16T17:24:56.039Z,7.90
2023-03-16T17:27:22.431Z,7.94
2023-03-16T17:29:48.730Z,7.89
2023-03-16T17:32:15.017Z,7.33
2023-03-16T17:34:41.347Z,7.42
2023-03-16T17:37:07.656Z,7.58
2023-03-16T17:39:34.001Z,7.56
2023-03-16T17:42:00.404Z,6.83
2023-03-16T17:44:26.707Z,7.25
2023-03-16T17:46:53.017Z,7.87
2023-03-16T17:49:19.414Z,8.20
2023-03-16T17:51:45.727Z,8.08
2023-03-16T17:54:12.041Z,6.50
2023-03-16T17:56:38.356Z,6.41
2023-03-16T17:59:04.652Z,6.29
2023-03-16T18:01:30.961Z,5.64
2023-03-16T18:03:57.353Z,5.94
2023-03-16T18:06:23.682Z,5.22
2023-03-16T18:08:49.986Z,5.65
2023-03-16T18:11:16.319Z,4.87
2023-03-16T18:13:42.617Z,4.76
2023-03-16T18:16:08.958Z,4.64
2023-03-16T18:18:35.336Z,4.58
2023-03-16T18:21:01.632Z,4.84
2023-03-16T18:23:27.962Z,4.84
2023-03-16T18:25:54.295Z,4.58
2023-03-16T18:28:20.602Z,4.51
2023-03-16T18:30:46.902Z,4.64
2023-03-16T18:33:13.207Z,5.23
2023-03-16T18:35:39.553Z,6.03
2023-03-16T18:38:05.872Z,5.33
2023-03-16T18:40:32.184Z,5.05
2023-03-16T18:42:58.471Z,4.70
2023-03-16T18:45:24.764Z,4.84
2023-03-16T18:47:51.082Z,5.03
2023-03-16T18:50:17.379Z,5.09
2023-03-16T18:52:43.671Z,5.35
2023-03-16T18:55:09.991Z,4.99
2023-03-16T18:57:36.294Z,5.02
2023-03-16T19:00:02.592Z,5.13
2023-03-16T19:02:28.954Z,5.43
2023-03-16T19:04:55.257Z,5.26
2023-03-16T19:07:21.559Z,5.62
2023-03-16T19:09:47.876Z,5.21
2023-03-16T19:12:17.201Z,5.27
2023-03-16T19:14:43.494Z,5.05
2023-03-16T19:17:09.796Z,4.81
2023-03-16T19:19:36.093Z,4.91
2023-03-16T19:22:02.405Z,4.35
2023-03-16T19:24:28.760Z,4.59
2023-03-16T19:26:55.069Z,4.61
2023-03-16T19:29:21.377Z,4.91
2023-03-16T19:31:47.791Z,4.57
2023-03-16T19:34:14.093Z,4.51
2023-03-16T19:36:40.413Z,4.56
2023-03-16T19:39:06.741Z,4.64
2023-03-16T19:41:33.049Z,4.49
2023-03-16T19:43:59.475Z,4.81
2023-03-16T19:46:25.833Z,4.51
2023-03-16T19:48:52.137Z,4.64
2023-03-16T19:51:18.446Z,5.02
2023-03-16T19:53:44.774Z,4.98
2023-03-16T19:56:11.076Z,5.00
2023-03-16T19:58:37.375Z,4.91
2023-03-16T20:01:03.765Z,5.06
2023-03-16T20:03:30.103Z,4.78
2023-03-16T20:05:56.416Z,4.98
2023-03-16T20:08:22.734Z,4.84
2023-03-16T20:10:49.042Z,5.82
2023-03-16T20:13:15.355Z,5.78
2023-03-16T20:15:41.662Z,5.21
2023-03-16T20:18:07.980Z,5.31
2023-03-16T20:20:34.287Z,5.01
2023-03-16T20:23:00.626Z,5.18
2023-03-16T20:25:26.941Z,4.80
2023-03-16T20:27:53.249Z,4.91
2023-03-16T20:30:19.608Z,5.09
2023-03-16T20:32:45.987Z,5.21
2023-03-16T20:35:12.313Z,5.35
2023-03-16T20:37:38.628Z,5.01
2023-03-16T20:40:04.925Z,5.29
2023-03-16T20:42:31.231Z,5.24
2023-03-16T20:45:00.378Z,5.06
2023-03-16T20:47:26.704Z,5.25
2023-03-16T20:49:53.133Z,5.24
2023-03-16T20:52:19.458Z,5.26
2023-03-16T20:54:45.756Z,4.86
2023-03-16T20:57:12.043Z,5.00
2023-03-16T20:59:38.350Z,4.93
2023-03-16T21:02:04.637Z,5.29
2023-03-16T21:04:30.980Z,5.33
2023-03-16T21:06:57.322Z,5.21
2023-03-16T21:09:23.616Z,5.12
2023-03-16T21:11:49.933Z,5.13
2023-03-16T21:14:16.247Z,5.32
2023-03-16T21:16:47.057Z,5.23
2023-03-16T21:19:13.342Z,5.86
2023-03-16T21:21:39.666Z,5.61
2023-03-16T21:24:05.968Z,5.64
2023-03-16T21:26:32.254Z,5.35
2023-03-16T21:28:58.578Z,5.25
2023-03-16T21:31:24.965Z,5.11
2023-03-16T21:33:51.290Z,4.75
2023-03-16T21:36:17.647Z,4.72
2023-03-16T21:38:43.930Z,5.22
2023-03-16T21:41:10.211Z,5.60
2023-03-16T21:43:36.523Z,5.85
2023-03-16T21:46:02.809Z,6.88
2023-03-16T21:48:29.099Z,6.86
2023-03-16T21:50:55.429Z,6.69
2023-03-16T21:53:21.735Z,6.80
2023-03-16T21:55:48.031Z,6.44
2023-03-16T21:58:14.357Z,6.11
2023-03-16T22:00:40.679Z,6.42
2023-03-16T22:03:07.056Z,6.62
2023-03-16T22:05:33.408Z,6.40
2023-03-16T22:07:59.708Z,6.21
2023-03-16T22:10:26.102Z,6.24
2023-03-16T22:12:52.431Z,5.59
2023-03-16T22:15:18.732Z,5.69
2023-03-16T22:17:45.021Z,5.64
2023-03-16T22:20:11.329Z,5.82
2023-03-16T22:22:37.618Z,5.56
2023-03-16T22:25:03.947Z,5.34
2023-03-16T22:27:30.265Z,4.65
2023-03-16T22:29:56.565Z,4.01
2023-03-16T22:32:22.893Z,3.81
2023-03-16T22:34:49.208Z,4.31
2023-03-16T22:37:15.513Z,4.43
2023-03-16T22:39:41.848Z,5.05
2023-03-16T22:42:08.222Z,5.03
2023-03-16T22:44:34.526Z,5.26
2023-03-16T22:47:00.826Z,5.33
2023-03-16T22:49:27.145Z,5.03
2023-03-16T22:51:53.452Z,5.02
2023-03-16T22:54:19.750Z,4.91
2023-03-16T22:56:47.011Z,4.91
2023-03-16T22:59:13.303Z,4.68
2023-03-16T23:01:39.585Z,4.42
2023-03-16T23:04:05.899Z,4.50
2023-03-16T23:06:32.194Z,4.57
2023-03-16T23:08:58.485Z,4.76
2023-03-16T23:11:24.797Z,5.11
2023-03-16T23:13:51.083Z,5.29
2023-03-16T23:16:17.389Z,4.91
2023-03-16T23:18:43.716Z,4.71
2023-03-16T23:21:10.027Z,4.58
2023-03-16T23:23:36.373Z,4.48
2023-03-16T23:26:02.690Z,4.20
2023-03-16T23:28:28.998Z,3.97
2023-03-16T23:30:55.337Z,4.13
2023-03-16T23:33:21.673Z,3.99
2023-03-16T23:35:48.017Z,3.93
2023-03-16T23:38:14.334Z,4.24
2023-03-16T23:40:40.638Z,4.18
2023-03-16T23:43:06.923Z,4.32
2023-03-16T23:45:33.231Z,4.83
2023-03-16T23:47:59.590Z,4.81
2023-03-16T23:50:25.901Z,4.83
2023-03-16T23:52:52.201Z,5.31
2023-03-16T23:55:18.534Z,4.89
2023-03-16T23:57:44.828Z,5.03
